Time;durP1;ratioP1;P1;durP2;ratioP2;P2;SDS_P1;SDS_P2;PMS_P1;PMS_P2;Temp;Humidity;BMP_temperature;BMP_pressure;BME280_temperature;BME280_humidity;BME280_pressure;Samples;Min_cycle;Max_cycle;Signal;HPM_P1;HPM_P2
2023/11/09 00:00:37;;;;;;;2.63;1.73;;;1.60;99.90;;;;;;4935369;29;20024;-77
2023/11/09 00:03:07;;;;;;;3.53;1.95;;;1.60;99.90;;;;;;4935427;29;20492;-78
2023/11/09 00:05:33;;;;;;;2.67;1.83;;;1.60;99.90;;;;;;4935199;29;20028;-78
2023/11/09 00:07:59;;;;;;;1.77;1.63;;;1.60;99.90;;;;;;4936136;29;20090;-77
2023/11/09 00:10:25;;;;;;;2.05;1.80;;;1.70;99.90;;;;;;4935469;29;20036;-77
2023/11/09 00:12:51;;;;;;;2.20;1.65;;;1.70;99.90;;;;;;4936629;29;20031;-77
2023/11/09 00:15:20;;;;;;;4.15;2.42;;;1.70;99.90;;;;;;4936095;29;20047;-78
2023/11/09 00:17:46;;;;;;;3.15;2.05;;;1.60;99.90;;;;;;4935640;29;20147;-77
2023/11/09 00:20:12;;;;;;;4.13;2.25;;;1.60;99.90;;;;;;4936337;29;20416;-76
2023/11/09 00:22:39;;;;;;;2.50;1.98;;;1.90;99.90;;;;;;4935424;29;20028;-77
2023/11/09 00:25:06;;;;;;;6.03;2.25;;;1.50;99.90;;;;;;4934743;29;20028;-77
2023/11/09 00:27:32;;;;;;;2.22;1.80;;;1.40;99.90;;;;;;4935358;29;20027;-77
2023/11/09 00:29:57;;;;;;;1.70;1.33;;;1.50;99.90;;;;;;4934466;29;20101;-76
2023/11/09 00:32:23;;;;;;;2.65;2.20;;;1.50;99.90;;;;;;4934658;29;20028;-77
2023/11/09 00:34:49;;;;;;;5.63;1.92;;;1.40;99.90;;;;;;4934620;29;20034;-77
2023/11/09 00:37:15;;;;;;;2.63;1.67;;;1.40;99.90;;;;;;4918748;29;20046;-77
2023/11/09 00:39:40;;;;;;;5.45;2.15;;;1.50;99.90;;;;;;4936438;29;20480;-77
2023/11/09 00:42:06;;;;;;;4.03;1.70;;;1.40;99.90;;;;;;4935791;29;20031;-80
2023/11/09 00:44:33;;;;;;;4.40;1.90;;;1.40;99.90;;;;;;4934203;29;20083;-77
2023/11/09 00:46:59;;;;;;;4.13;2.45;;;1.30;99.90;;;;;;4936139;29;20032;-77
2023/11/09 00:49:26;;;;;;;3.17;2.00;;;1.30;99.90;;;;;;4936083;29;20059;-78
2023/11/09 00:51:51;;;;;;;3.80;2.03;;;1.30;99.90;;;;;;4934382;29;20028;-77
2023/11/09 00:54:17;;;;;;;2.60;1.85;;;1.30;99.90;;;;;;4934057;29;20452;-77
2023/11/09 00:56:43;;;;;;;2.83;2.28;;;1.30;99.90;;;;;;4934250;29;20024;-77
2023/11/09 00:59:08;;;;;;;2.58;1.95;;;1.30;99.90;;;;;;4934830;29;20023;-78
2023/11/09 01:01:34;;;;;;;2.80;1.88;;;1.30;99.90;;;;;;4935476;29;20543;-77
2023/11/09 01:03:59;;;;;;;5.32;2.80;;;1.30;99.90;;;;;;4934182;29;20388;-77
2023/11/09 01:06:25;;;;;;;2.67;1.98;;;1.40;99.90;;;;;;4935378;29;20032;-77
2023/11/09 01:08:51;;;;;;;3.08;1.92;;;1.30;99.90;;;;;;4934485;29;20047;-77
2023/11/09 01:11:24;;;;;;;4.32;2.70;;;1.30;99.90;;;;;;4934566;29;20032;-78
2023/11/09 01:13:52;;;;;;;3.78;1.98;;;1.40;99.90;;;;;;4935120;29;20111;-77
2023/11/09 01:16:20;;;;;;;3.08;2.42;;;1.30;99.90;;;;;;4934974;29;20023;-77
2023/11/09 01:18:47;;;;;;;5.25;2.45;;;1.30;99.90;;;;;;4934884;29;20052;-77
2023/11/09 01:21:14;;;;;;;2.33;1.88;;;1.30;99.90;;;;;;4935410;29;20024;-77
2023/11/09 01:23:40;;;;;;;4.15;1.95;;;1.30;99.90;;;;;;4936535;29;20593;-79
2023/11/09 01:26:06;;;;;;;4.50;2.25;;;1.40;99.90;;;;;;4935479;29;20567;-77
2023/11/09 01:28:32;;;;;;;1.95;1.65;;;1.30;99.90;;;;;;4936334;29;20027;-77
2023/11/09 01:30:58;;;;;;;3.95;2.03;;;1.30;99.90;;;;;;4936834;29;20042;-78
2023/11/09 01:33:24;;;;;;;3.35;2.10;;;1.30;99.90;;;;;;4936735;29;20419;-77
2023/11/09 01:35:49;;;;;;;3.42;2.10;;;1.30;99.90;;;;;;4936041;29;20086;-76
2023/11/09 01:38:16;;;;;;;2.55;1.90;;;1.30;99.90;;;;;;4936634;29;20062;-77
2023/11/09 01:40:42;;;;;;;2.17;1.80;;;1.30;99.90;;;;;;4935779;29;20023;-77
2023/11/09 01:43:12;;;;;;;3.50;2.38;;;1.30;99.90;;;;;;4939699;29;20023;-77
2023/11/09 01:45:38;;;;;;;3.05;2.20;;;1.20;99.90;;;;;;4937764;29;20373;-77
2023/11/09 01:48:04;;;;;;;2.97;2.17;;;1.20;99.90;;;;;;4937993;29;20039;-77
2023/11/09 01:50:30;;;;;;;5.10;2.45;;;1.20;99.90;;;;;;4937879;29;20031;-77
2023/11/09 01:52:56;;;;;;;3.03;2.70;;;1.10;99.90;;;;;;4939241;29;20499;-76
2023/11/09 01:55:22;;;;;;;3.70;2.15;;;1.10;99.90;;;;;;4938814;29;20403;-77
2023/11/09 01:57:48;;;;;;;3.58;1.88;;;1.10;99.90;;;;;;4937674;29;20024;-77
2023/11/09 02:00:15;;;;;;;3.47;2.03;;;1.10;99.90;;;;;;4937588;29;20106;-77
2023/11/09 02:02:41;;;;;;;2.63;1.70;;;1.10;99.90;;;;;;4938451;29;20035;-77
2023/11/09 02:05:09;;;;;;;2.13;1.63;;;1.10;99.90;;;;;;4937367;29;20028;-76
2023/11/09 02:07:36;;;;;;;3.20;1.83;;;1.00;99.90;;;;;;4938929;29;20104;-77
2023/11/09 02:10:03;;;;;;;3.13;1.83;;;1.00;99.90;;;;;;4937387;29;20027;-78
2023/11/09 02:12:29;;;;;;;2.85;1.63;;;1.00;99.90;;;;;;4937524;29;20107;-77
2023/11/09 02:14:54;;;;;;;2.45;1.48;;;0.90;99.90;;;;;;4936918;29;20028;-76
2023/11/09 02:17:21;;;;;;;3.08;1.98;;;0.90;99.90;;;;;;4937440;29;20024;-77
2023/11/09 02:19:46;;;;;;;3.55;2.22;;;0.90;99.90;;;;;;4938742;29;20024;-77
2023/11/09 02:22:13;;;;;;;4.82;2.60;;;0.90;99.90;;;;;;4937673;29;20444;-77
2023/11/09 02:24:40;;;;;;;3.22;2.45;;;0.90;99.90;;;;;;4938231;29;20455;-77
2023/11/09 02:27:05;;;;;;;3.47;1.83;;;0.80;99.90;;;;;;4937303;29;20431;-77
2023/11/09 02:29:31;;;;;;;4.85;1.65;;;0.90;99.90;;;;;;4937462;29;20028;-77
2023/11/09 02:31:57;;;;;;;2.40;1.60;;;0.90;99.90;;;;;;4937421;29;20028;-77
2023/11/09 02:34:23;;;;;;;3.30;1.63;;;0.80;99.90;;;;;;4936847;29;20064;-78
2023/11/09 02:36:52;;;;;;;2.72;1.58;;;0.80;99.90;;;;;;4937256;29;20496;-77
2023/11/09 02:39:18;;;;;;;3.70;2.15;;;0.80;99.90;;;;;;4938094;29;20508;-77
2023/11/09 02:41:44;;;;;;;2.63;1.77;;;0.70;99.90;;;;;;4936772;29;20039;-79
2023/11/09 02:44:09;;;;;;;7.95;2.60;;;0.70;99.90;;;;;;4937729;29;20454;-77
2023/11/09 02:46:35;;;;;;;4.35;1.88;;;0.70;99.90;;;;;;4936815;29;20031;-77
2023/11/09 02:49:01;;;;;;;3.97;2.42;;;0.80;99.90;;;;;;4937078;29;20059;-76
2023/11/09 02:51:26;;;;;;;2.67;1.77;;;0.80;99.90;;;;;;4936176;29;20034;-78
2023/11/09 02:53:53;;;;;;;3.17;2.60;;;0.70;99.90;;;;;;4937601;29;20065;-77
2023/11/09 02:56:20;;;;;;;4.55;2.75;;;0.70;99.90;;;;;;4937714;29;20016;-77
2023/11/09 02:58:47;;;;;;;7.72;2.20;;;0.70;99.90;;;;;;4936640;29;20400;-77
2023/11/09 03:01:13;;;;;;;5.20;2.05;;;0.70;99.90;;;;;;4936634;29;20023;-77
2023/11/09 03:03:39;;;;;;;3.40;2.17;;;0.60;99.90;;;;;;4936655;29;20123;-77
2023/11/09 03:06:05;;;;;;;3.97;2.20;;;0.60;99.90;;;;;;4936218;29;20024;-77
2023/11/09 03:08:31;;;;;;;3.92;2.13;;;0.70;99.90;;;;;;4937757;29;20023;-77
2023/11/09 03:10:57;;;;;;;5.80;1.80;;;0.70;99.90;;;;;;4937485;29;20028;-77
2023/11/09 03:13:23;;;;;;;2.22;2.03;;;0.70;99.90;;;;;;4937353;29;20369;-77
2023/11/09 03:15:49;;;;;;;2.40;1.58;;;0.70;99.90;;;;;;4937069;29;20024;-77
2023/11/09 03:18:15;;;;;;;5.28;2.35;;;0.70;99.90;;;;;;4936306;29;20019;-77
2023/11/09 03:20:41;;;;;;;3.13;1.80;;;0.60;99.90;;;;;;4937459;29;20433;-78
2023/11/09 03:23:08;;;;;;;5.10;1.92;;;0.60;99.90;;;;;;4937518;29;20106;-77
2023/11/09 03:25:34;;;;;;;5.78;2.13;;;1.00;99.90;;;;;;4935751;29;20050;-77
2023/11/09 03:28:00;;;;;;;2.30;2.08;;;0.70;99.90;;;;;;4936257;29;20023;-77
2023/11/09 03:30:29;;;;;;;2.30;2.10;;;0.70;99.90;;;;;;4936382;29;20094;-77
2023/11/09 03:32:54;;;;;;;2.83;1.73;;;0.60;99.90;;;;;;4936354;29;20038;-77
2023/11/09 03:35:20;;;;;;;3.03;1.67;;;0.60;99.90;;;;;;4937592;29;20027;-77
2023/11/09 03:37:46;;;;;;;4.50;2.38;;;0.70;99.90;;;;;;4935802;29;20028;-77
2023/11/09 03:40:12;;;;;;;1.75;1.65;;;0.60;99.90;;;;;;4937254;29;20035;-77
2023/11/09 03:42:38;;;;;;;2.90;1.48;;;0.60;99.90;;;;;;4936166;29;20047;-76
2023/11/09 03:45:04;;;;;;;2.28;1.95;;;0.60;99.90;;;;;;4936750;29;20040;-77
2023/11/09 03:47:29;;;;;;;2.53;1.70;;;0.60;99.90;;;;;;4937250;29;20039;-76
2023/11/09 03:49:55;;;;;;;2.83;2.08;;;0.60;99.90;;;;;;4935670;29;20039;-77
2023/11/09 03:52:21;;;;;;;2.38;1.75;;;0.60;99.90;;;;;;4932265;29;20119;-77
2023/11/09 03:54:46;;;;;;;3.55;2.83;;;0.70;99.90;;;;;;4917449;29;20032;-77
2023/11/09 03:57:12;;;;;;;3.30;2.65;;;0.50;99.90;;;;;;4932619;29;20556;-77
2023/11/09 03:59:38;;;;;;;2.78;2.42;;;0.60;99.90;;;;;;4932479;29;20024;-77
2023/11/09 04:02:04;;;;;;;3.03;2.30;;;0.50;99.90;;;;;;4932509;29;20027;-77
2023/11/09 04:04:29;;;;;;;2.60;2.40;;;0.50;99.90;;;;;;4931044;29;20056;-77
2023/11/09 04:06:55;;;;;;;2.85;2.25;;;0.50;99.90;;;;;;4932386;29;20087;-77
2023/11/09 04:09:21;;;;;;;4.75;2.67;;;0.40;99.90;;;;;;4932087;29;20032;-76
2023/11/09 04:11:47;;;;;;;4.05;2.40;;;0.40;99.90;;;;;;4931976;29;20075;-78
2023/11/09 04:14:13;;;;;;;6.03;1.92;;;0.40;99.90;;;;;;4931703;29;20067;-76
2023/11/09 04:16:39;;;;;;;2.92;1.95;;;0.40;99.90;;;;;;4917122;29;20097;-77
2023/11/09 04:19:07;;;;;;;3.70;2.47;;;0.30;99.90;;;;;;4917823;29;20024;-76
2023/11/09 04:21:33;;;;;;;5.15;2.95;;;0.30;99.90;;;;;;4917801;29;20028;-76
2023/11/09 04:23:59;;;;;;;6.63;2.47;;;0.40;99.90;;;;;;4931972;29;20027;-77
2023/11/09 04:26:24;;;;;;;10.98;2.30;;;0.40;99.90;;;;;;4931968;29;20172;-77
2023/11/09 04:28:53;;;;;;;4.05;2.38;;;0.40;99.90;;;;;;4917129;29;20060;-77
2023/11/09 04:31:23;;;;;;;6.65;2.33;;;0.30;99.90;;;;;;4931784;29;20032;-76
2023/11/09 04:33:53;;;;;;;5.25;2.85;;;0.30;99.90;;;;;;4932708;29;20436;-77
2023/11/09 04:36:19;;;;;;;5.60;2.72;;;0.30;99.90;;;;;;4935145;29;20020;-76
2023/11/09 04:38:46;;;;;;;1.73;1.63;;;0.60;99.90;;;;;;4922104;29;20040;-78
2023/11/09 04:41:18;;;;;;;12.45;3.40;;;3.00;99.90;;;;;;4918000;29;20484;-77
2023/11/09 04:43:44;;;;;;;8.07;3.30;;;2.80;99.90;;;;;;4931984;29;20032;-77
2023/11/09 04:46:13;;;;;;;14.27;2.92;;;1.70;99.90;;;;;;4936627;29;20031;-77
2023/11/09 04:48:47;;;;;;;23.35;7.03;;;1.30;99.90;;;;;;4934878;29;20488;-77
2023/11/09 04:51:22;;;;;;;8.82;5.70;;;1.00;99.90;;;;;;4935301;29;20036;-77
2023/11/09 04:53:51;;;;;;;8.50;3.53;;;0.70;99.90;;;;;;4935737;29;20400;-77
2023/11/09 04:56:38;;;;;;;9.10;2.80;;;1.00;99.90;;;;;;4936475;29;20024;-77
2023/11/09 05:06:48;;;;;;;7.20;3.45;;;0.50;99.90;;;;;;4934920;29;20488;-77
2023/11/09 05:07:19;;;;;;;4.13;2.35;;;0.20;99.90;;;;;;4936305;29;20091;-76
2023/11/09 05:09:47;;;;;;;22.23;3.47;;;0.20;99.90;;;;;;4935441;29;20060;-77
2023/11/09 05:12:16;;;;;;;11.02;2.75;;;0.20;99.90;;;;;;4936112;29;20539;-77
2023/11/09 05:14:41;;;;;;;10.32;2.50;;;0.10;99.90;;;;;;4934513;29;20123;-77
2023/11/09 05:17:08;;;;;;;4.43;2.03;;;0.20;99.90;;;;;;4934632;29;20110;-77
2023/11/09 05:19:35;;;;;;;11.65;3.28;;;0.10;99.90;;;;;;4935947;29;20495;-76
2023/11/09 05:22:00;;;;;;;9.30;3.08;;;0.10;99.90;;;;;;4935668;29;20055;-77
2023/11/09 05:24:27;;;;;;;12.25;4.53;;;0.10;99.90;;;;;;4936559;29;20028;-77
2023/11/09 05:26:52;;;;;;;7.30;4.47;;;0.10;99.90;;;;;;4934436;29;20028;-77
2023/11/09 05:29:18;;;;;;;14.85;3.92;;;0.10;99.90;;;;;;4934836;29;20090;-77
2023/11/09 05:31:44;;;;;;;8.32;2.95;;;0.10;99.90;;;;;;4934926;29;20036;-77
2023/11/09 05:34:11;;;;;;;3.05;2.80;;;0.20;99.90;;;;;;4934437;29;20028;-77
2023/11/09 05:36:37;;;;;;;12.55;4.07;;;0.20;99.90;;;;;;4934918;29;20034;-77
2023/11/09 05:39:10;;;;;;;10.32;3.92;;;0.20;99.90;;;;;;4935389;29;20027;-77
2023/11/09 05:41:36;;;;;;;5.68;4.18;;;0.20;99.90;;;;;;4934548;29;20028;-76
2023/11/09 05:44:02;;;;;;;11.52;6.20;;;0.20;99.90;;;;;;4934321;29;20028;-77
2023/11/09 05:46:28;;;;;;;15.20;7.35;;;3.40;99.90;;;;;;4935378;29;20059;-77
2023/11/09 05:48:54;;;;;;;15.07;7.57;;;2.30;99.90;;;;;;4934117;29;20027;-76
2023/11/09 05:51:23;;;;;;;10.80;4.90;;;1.70;99.90;;;;;;4934222;29;20051;-77
2023/11/09 05:53:49;;;;;;;8.48;4.68;;;1.40;99.90;;;;;;4919293;29;20023;-77
2023/11/09 05:56:16;;;;;;;8.95;3.13;;;1.00;99.90;;;;;;4936566;29;20035;-77
2023/11/09 05:58:42;;;;;;;4.55;3.15;;;1.40;99.90;;;;;;4935451;29;20389;-76
2023/11/09 06:01:08;;;;;;;13.07;3.92;;;0.80;99.90;;;;;;4904460;29;20058;-77
2023/11/09 06:03:34;;;;;;;6.15;4.43;;;0.50;99.90;;;;;;4934568;29;20032;-77
2023/11/09 06:06:00;;;;;;;13.45;3.42;;;0.40;99.90;;;;;;4918923;29;20476;-76
2023/11/09 06:08:25;;;;;;;5.57;4.50;;;0.40;99.90;;;;;;4934722;29;20028;-77
2023/11/09 06:10:53;;;;;;;18.67;4.10;;;1.90;99.90;;;;;;4935963;29;20031;-77
2023/11/09 06:13:18;;;;;;;14.02;3.92;;;1.30;99.90;;;;;;4934770;29;20024;-77
2023/11/09 06:15:44;;;;;;;6.53;3.95;;;1.10;99.90;;;;;;4920037;29;20028;-76
2023/11/09 06:18:10;;;;;;;16.25;3.95;;;0.90;99.90;;;;;;4905788;29;20027;-77
2023/11/09 06:20:39;;;;;;;6.80;3.30;;;0.80;99.90;;;;;;4890844;29;20044;-77
2023/11/09 06:23:05;;;;;;;15.55;4.03;;;0.50;99.90;;;;;;4919953;29;20020;-77
2023/11/09 06:25:31;;;;;;;5.80;3.22;;;0.40;99.90;;;;;;4904272;29;20025;-77
2023/11/09 06:27:57;;;;;;;13.77;3.72;;;0.30;99.90;;;;;;4912258;29;20052;-77
2023/11/09 06:30:22;;;;;;;7.28;3.22;;;0.40;99.90;;;;;;4931673;29;20034;-76
2023/11/09 06:32:48;;;;;;;5.47;3.15;;;0.40;99.90;;;;;;4939349;29;20016;-77
2023/11/09 06:35:17;;;;;;;7.78;3.95;;;0.40;99.90;;;;;;4921742;29;20027;-77
2023/11/09 06:37:45;;;;;;;6.13;4.00;;;0.40;99.90;;;;;;4932315;29;20016;-77
2023/11/09 06:40:12;;;;;;;6.88;4.43;;;0.30;99.90;;;;;;4930267;29;20024;-78
2023/11/09 06:42:39;;;;;;;10.13;5.03;;;0.30;99.90;;;;;;4920840;29;20036;-77
2023/11/09 06:45:05;;;;;;;11.90;5.10;;;0.40;99.90;;;;;;4916816;29;20039;-77
2023/11/09 06:47:31;;;;;;;10.80;4.25;;;0.40;99.90;;;;;;4925365;29;20079;-77
2023/11/09 06:49:58;;;;;;;14.50;4.88;;;0.50;99.90;;;;;;4920151;29;20373;-76
2023/11/09 06:52:25;;;;;;;7.10;3.67;;;0.50;99.90;;;;;;4925480;29;20048;-75
2023/11/09 06:54:50;;;;;;;7.97;4.18;;;0.60;99.90;;;;;;4918833;29;20044;-76
2023/11/09 06:57:16;;;;;;;7.47;3.15;;;0.60;99.90;;;;;;4935695;29;20024;-78
2023/11/09 06:59:41;;;;;;;5.15;2.90;;;0.60;99.90;;;;;;4928367;29;20048;-78
2023/11/09 07:02:07;;;;;;;8.73;2.95;;;0.70;99.90;;;;;;4930883;29;20412;-79
2023/11/09 07:04:33;;;;;;;10.95;3.42;;;0.70;99.90;;;;;;4931768;29;20108;-78
2023/11/09 07:06:59;;;;;;;10.52;2.65;;;0.70;99.90;;;;;;4938244;29;20118;-79
2023/11/09 07:09:25;;;;;;;8.77;2.97;;;0.80;99.90;;;;;;4921325;29;20078;-78
2023/11/09 07:11:54;;;;;;;9.90;2.88;;;0.80;99.90;;;;;;4919986;29;20036;-77
2023/11/09 07:14:23;;;;;;;3.20;2.45;;;0.80;99.90;;;;;;4920693;29;20028;-77
2023/11/09 07:16:55;;;;;;;4.30;2.50;;;0.80;99.90;;;;;;4906917;29;20064;-76
2023/11/09 07:19:24;;;;;;;3.95;2.92;;;0.80;99.90;;;;;;4900550;29;20084;-77
2023/11/09 07:21:50;;;;;;;3.15;2.30;;;0.90;99.90;;;;;;4901217;29;20032;-76
2023/11/09 07:24:17;;;;;;;4.97;2.80;;;0.90;99.90;;;;;;4889787;29;20036;-76
2023/11/09 07:26:44;;;;;;;2.72;2.50;;;1.10;99.90;;;;;;4902330;29;20036;-76
2023/11/09 07:29:10;;;;;;;4.50;3.30;;;1.20;99.90;;;;;;4902476;29;20533;-76
2023/11/09 07:31:35;;;;;;;5.05;2.90;;;1.30;99.90;;;;;;4900841;29;20104;-77
2023/11/09 07:34:01;;;;;;;4.38;3.47;;;1.30;99.90;;;;;;4899456;29;20045;-77
2023/11/09 07:36:27;;;;;;;3.40;3.10;;;1.40;99.90;;;;;;4900675;29;20029;-77
2023/11/09 07:38:53;;;;;;;6.80;3.72;;;1.50;99.90;;;;;;4900438;29;20076;-77
2023/11/09 07:41:18;;;;;;;7.53;2.95;;;1.60;99.90;;;;;;4902230;29;20029;-77
2023/11/09 07:43:44;;;;;;;4.70;3.55;;;1.60;99.90;;;;;;4898583;29;20124;-77
2023/11/09 07:46:10;;;;;;;3.25;2.92;;;1.70;99.90;;;;;;4885153;29;20097;-77
2023/11/09 07:48:35;;;;;;;6.80;4.13;;;1.90;99.90;;;;;;4886502;29;20117;-78
2023/11/09 07:51:01;;;;;;;6.18;3.90;;;2.00;99.90;;;;;;4903858;29;20032;-80
2023/11/09 07:53:27;;;;;;;7.25;4.63;;;2.10;99.90;;;;;;4904622;29;20084;-78
2023/11/09 07:55:52;;;;;;;8.00;3.63;;;2.20;99.90;;;;;;4906834;29;20029;-78
2023/11/09 07:58:19;;;;;;;7.30;3.42;;;2.40;99.90;;;;;;4909121;29;20110;-82
2023/11/09 08:00:45;;;;;;;5.35;3.10;;;2.40;99.90;;;;;;4892473;29;20020;-83
2023/11/09 08:03:11;;;;;;;6.57;3.60;;;2.70;99.90;;;;;;4911600;29;20024;-84
2023/11/09 08:05:41;;;;;;;6.82;3.95;;;2.50;99.90;;;;;;4901467;29;20028;-84
2023/11/09 08:08:10;;;;;;;8.13;4.10;;;2.60;99.90;;;;;;4888471;29;20029;-83
2023/11/09 08:10:37;;;;;;;6.82;3.30;;;2.60;99.90;;;;;;4883114;29;20036;-83
2023/11/09 08:13:03;;;;;;;5.18;3.20;;;2.60;99.90;;;;;;4917164;29;20016;-74
2023/11/09 08:15:28;;;;;;;3.33;2.67;;;2.80;99.90;;;;;;4921761;29;20043;-78
2023/11/09 08:17:54;;;;;;;3.20;2.08;;;2.80;99.90;;;;;;4906618;29;20017;-81
2023/11/09 08:20:20;;;;;;;3.13;2.70;;;2.90;99.90;;;;;;4905551;29;20036;-81
2023/11/09 08:22:46;;;;;;;4.82;3.03;;;3.00;99.90;;;;;;4922070;29;20162;-82
2023/11/09 08:25:18;;;;;;;4.70;3.42;;;3.30;99.90;;;;;;4906272;29;20028;-81
2023/11/09 08:27:44;;;;;;;3.80;3.42;;;3.30;99.90;;;;;;4905123;29;20024;-83
2023/11/09 08:30:11;;;;;;;6.03;4.22;;;3.50;99.90;;;;;;4901726;29;20115;-84
2023/11/09 08:32:38;;;;;;;3.47;3.10;;;3.60;99.90;;;;;;4905696;29;20059;-83
2023/11/09 08:35:10;;;;;;;2.83;2.63;;;3.70;99.90;;;;;;4904611;29;20069;-84
2023/11/09 08:37:37;;;;;;;2.58;2.38;;;3.90;99.90;;;;;;4901752;29;20020;-85
2023/11/09 08:40:09;;;;;;;4.45;3.35;;;4.70;99.90;;;;;;4900214;29;20036;-82
2023/11/09 08:42:38;;;;;;;3.35;2.55;;;4.30;99.90;;;;;;4889012;29;20033;-80
2023/11/09 08:45:09;;;;;;;5.35;3.05;;;4.50;99.90;;;;;;4886750;29;20037;-81
2023/11/09 08:47:35;;;;;;;4.40;2.60;;;4.60;99.90;;;;;;4887425;29;20021;-81
2023/11/09 08:50:01;;;;;;;3.95;2.83;;;4.80;99.90;;;;;;4886992;29;20031;-80
2023/11/09 08:52:27;;;;;;;9.55;2.30;;;5.10;99.90;;;;;;4899877;29;20047;-85
2023/11/09 08:54:56;;;;;;;3.63;2.90;;;5.10;99.90;;;;;;4921027;29;20095;-82
2023/11/09 08:57:22;;;;;;;4.22;2.85;;;5.30;99.90;;;;;;4921524;29;20028;-86
2023/11/09 08:59:47;;;;;;;7.57;3.58;;;5.50;99.90;;;;;;4924363;29;20035;-84
2023/11/09 09:02:13;;;;;;;5.18;2.90;;;6.20;99.90;;;;;;4921981;29;20032;-79
2023/11/09 09:04:40;;;;;;;6.45;3.50;;;6.80;99.90;;;;;;4922718;29;20125;-79
2023/11/09 09:07:06;;;;;;;15.25;4.28;;;6.70;99.90;;;;;;4920981;29;20658;-78
2023/11/09 09:09:32;;;;;;;15.02;3.50;;;6.30;99.90;;;;;;4929605;29;20042;-79
2023/11/09 09:11:59;;;;;;;7.30;3.60;;;6.40;99.90;;;;;;4927144;29;20032;-80
2023/11/09 09:14:25;;;;;;;7.85;3.17;;;6.50;99.90;;;;;;4903760;29;20029;-81
2023/11/09 09:16:50;;;;;;;5.72;3.25;;;6.70;99.90;;;;;;4930121;29;20015;-82
2023/11/09 09:19:17;;;;;;;4.85;3.03;;;6.80;99.90;;;;;;4933795;29;20036;-81
2023/11/09 09:21:43;;;;;;;6.30;4.32;;;7.00;99.90;;;;;;4920366;29;20024;-79
2023/11/09 09:24:09;;;;;;;5.43;4.65;;;8.90;99.90;;;;;;4931919;29;20030;-80
2023/11/09 09:26:34;;;;;;;6.03;3.50;;;8.90;99.90;;;;;;4930180;29;20024;-81
2023/11/09 09:29:01;;;;;;;5.82;3.53;;;8.60;99.90;;;;;;4933299;29;20029;-81
2023/11/09 09:31:28;;;;;;;5.45;3.47;;;8.20;99.90;;;;;;4928533;29;20451;-78
2023/11/09 09:34:07;;;;;;;5.38;3.17;;;7.90;99.90;;;;;;4923058;29;20413;-81
2023/11/09 09:36:37;;;;;;;3.67;2.83;;;7.80;99.90;;;;;;4922639;29;20024;-78
2023/11/09 09:39:03;;;;;;;3.83;3.03;;;7.80;99.90;;;;;;4930659;29;20024;-79
2023/11/09 09:41:37;;;;;;;5.43;2.58;;;7.80;99.90;;;;;;4936747;29;20027;-78
2023/11/09 09:44:03;;;;;;;4.70;3.05;;;8.00;99.90;;;;;;4935664;29;20028;-80
2023/11/09 09:46:35;;;;;;;5.22;2.80;;;8.00;99.90;;;;;;4918878;29;20111;-80
2023/11/09 09:49:03;;;;;;;4.47;3.17;;;8.10;99.90;;;;;;4920223;29;20033;-80
2023/11/09 09:51:34;;;;;;;3.35;2.65;;;8.20;99.90;;;;;;4900834;29;20035;-81
2023/11/09 09:54:01;;;;;;;3.78;3.13;;;8.50;99.90;;;;;;4921811;29;20493;-81
2023/11/09 09:56:29;;;;;;;4.88;2.40;;;8.50;99.90;;;;;;4939875;29;20059;-82
2023/11/09 09:58:56;;;;;;;4.25;2.33;;;8.50;99.90;;;;;;4917280;29;20060;-78
2023/11/09 10:01:22;;;;;;;3.88;2.53;;;8.50;99.90;;;;;;4923806;29;20079;-79
2023/11/09 10:03:52;;;;;;;3.67;2.70;;;8.60;99.90;;;;;;4925350;29;20028;-79
2023/11/09 10:06:21;;;;;;;6.30;3.03;;;8.80;99.90;;;;;;4928216;29;20576;-82
2023/11/09 10:08:47;;;;;;;5.72;2.40;;;8.80;99.90;;;;;;4931111;29;20060;-79
2023/11/09 10:11:15;;;;;;;5.22;2.17;;;9.00;99.90;;;;;;4940116;29;20060;-80
2023/11/09 10:13:46;;;;;;;4.28;2.38;;;9.00;99.90;;;;;;4941593;29;20024;-79
2023/11/09 10:16:15;;;;;;;2.00;1.60;;;9.10;99.90;;;;;;4932931;29;20612;-79
2023/11/09 10:18:41;;;;;;;4.47;2.42;;;9.20;99.90;;;;;;4925376;29;20461;-79
2023/11/09 10:21:12;;;;;;;7.20;3.40;;;9.30;99.90;;;;;;4924694;29;20033;-79
2023/11/09 10:23:39;;;;;;;13.50;6.57;;;9.40;99.90;;;;;;4923841;29;20029;-78
2023/11/09 10:26:11;;;;;;;8.05;4.05;;;9.40;99.90;;;;;;4919661;29;20111;-80
2023/11/09 10:28:37;;;;;;;10.95;8.52;;;9.50;99.90;;;;;;4940457;29;20046;-80
2023/11/09 10:31:03;;;;;;;4.38;3.05;;;9.60;99.90;;;;;;4926222;29;20055;-80
2023/11/09 10:33:30;;;;;;;6.55;4.45;;;9.70;99.90;;;;;;4919474;29;20052;-78
2023/11/09 10:35:56;;;;;;;5.07;3.85;;;9.80;99.90;;;;;;4930277;29;20020;-77
2023/11/09 10:38:24;;;;;;;7.28;4.90;;;10.00;99.90;;;;;;4933294;29;20052;-78
2023/11/09 10:40:54;;;;;;;8.45;5.22;;;10.00;99.90;;;;;;4943779;29;20027;-79
2023/11/09 10:43:21;;;;;;;12.43;6.25;;;10.10;99.90;;;;;;4943948;29;20063;-79
2023/11/09 10:45:49;;;;;;;3.45;2.55;;;10.20;99.90;;;;;;4941946;29;20046;-78
2023/11/09 10:48:19;;;;;;;6.50;4.13;;;10.30;99.90;;;;;;4925753;29;20172;-82
2023/11/09 10:50:48;;;;;;;7.32;3.97;;;10.40;99.30;;;;;;4925252;29;20107;-79
2023/11/09 10:53:16;;;;;;;14.52;6.80;;;10.90;99.90;;;;;;4936529;29;20028;-82
2023/11/09 10:55:53;;;;;;;6.15;2.67;;;11.10;99.90;;;;;;4939755;29;20572;-82
2023/11/09 10:58:23;;;;;;;3.92;2.45;;;10.90;97.60;;;;;;4933336;29;20393;-83
2023/11/09 11:00:58;;;;;;;4.63;2.90;;;10.80;97.40;;;;;;4933159;29;20074;-84
2023/11/09 11:03:39;;;;;;;2.72;1.92;;;10.70;96.60;;;;;;4927507;29;20076;-82
2023/11/09 11:06:09;;;;;;;4.82;2.35;;;10.70;97.00;;;;;;4924365;29;20038;-79
2023/11/09 11:08:40;;;;;;;5.22;3.15;;;10.60;97.60;;;;;;4927922;29;20039;-81
2023/11/09 11:11:13;;;;;;;5.47;3.08;;;10.50;98.20;;;;;;4926422;29;20028;-82
2023/11/09 11:13:43;;;;;;;3.17;1.83;;;10.50;98.20;;;;;;4925800;29;20028;-81
2023/11/09 11:16:10;;;;;;;5.53;2.53;;;10.50;98.00;;;;;;4924050;29;20119;-81
2023/11/09 11:19:06;;;;;;;4.20;2.30;;;10.60;98.40;;;;;;4907927;29;20052;-80
2023/11/09 11:21:52;;;;;;;;;;;10.60;98.40;;;;;;4890901;29;20080;-80
2023/11/09 11:24:18;;;;;;;5.45;3.75;;;10.70;98.40;;;;;;4903473;29;20397;-77
2023/11/09 11:27:11;;;;;;;4.93;2.88;;;10.90;98.20;;;;;;4889446;29;20123;-79
2023/11/09 11:29:39;;;;;;;8.65;4.15;;;11.00;98.30;;;;;;4901182;29;20037;-81
2023/11/09 11:32:09;;;;;;;14.63;5.30;;;11.00;98.00;;;;;;4906104;29;20029;-81
2023/11/09 11:35:01;;;;;;;16.42;8.48;;;11.20;97.90;;;;;;4912143;29;20144;-81
2023/11/09 11:37:30;;;;;;;9.77;4.15;;;11.10;97.10;;;;;;4924834;29;20052;-81
2023/11/09 11:39:56;;;;;;;7.22;4.00;;;11.10;96.60;;;;;;4923505;29;20024;-82
2023/11/09 11:42:25;;;;;;;13.10;6.32;;;11.20;96.90;;;;;;4924624;29;20027;-85
2023/11/09 11:44:52;;;;;;;3.75;3.05;;;11.30;96.70;;;;;;4928679;29;20072;-81
2023/11/09 11:47:23;;;;;;;4.10;2.90;;;11.50;96.10;;;;;;4926608;29;20042;-82
2023/11/09 11:49:49;;;;;;;4.28;2.03;;;11.60;95.20;;;;;;4911996;29;20031;-82
2023/11/09 11:52:18;;;;;;;3.25;2.15;;;11.70;95.30;;;;;;4924923;29;20079;-84
2023/11/09 11:54:45;;;;;;;9.45;4.07;;;11.80;95.10;;;;;;4927292;29;20032;-80
2023/11/09 11:57:15;;;;;;;4.15;1.80;;;11.90;95.30;;;;;;4925735;29;20030;-80
2023/11/09 11:59:41;;;;;;;3.03;2.08;;;11.90;94.40;;;;;;4911162;29;20503;-80
2023/11/09 12:02:12;;;;;;;11.32;4.80;;;11.90;93.80;;;;;;4904945;29;20036;-79
2023/11/09 12:04:46;;;;;;;5.82;3.33;;;11.90;94.50;;;;;;4904246;29;20036;-79
2023/11/09 12:07:18;;;;;;;2.78;2.17;;;11.80;94.40;;;;;;4905774;29;20374;-80
2023/11/09 12:09:46;;;;;;;5.47;3.13;;;11.80;94.50;;;;;;4903207;29;20033;-79
2023/11/09 12:12:13;;;;;;;2.55;2.30;;;11.80;95.20;;;;;;4886748;29;20036;-79
2023/11/09 12:14:41;;;;;;;8.95;3.10;;;11.90;94.70;;;;;;4901398;29;20036;-81
2023/11/09 12:17:06;;;;;;;12.75;5.95;;;11.90;94.60;;;;;;4904949;29;20032;-79
2023/11/09 12:19:33;;;;;;;10.93;4.95;;;11.80;94.80;;;;;;4904096;29;20021;-82
2023/11/09 12:22:01;;;;;;;8.25;4.30;;;11.90;95.60;;;;;;4887636;29;20029;-79
2023/11/09 12:24:28;;;;;;;5.65;3.38;;;12.00;95.50;;;;;;4904649;29;20517;-79
2023/11/09 12:27:08;;;;;;;4.65;2.55;;;12.10;95.10;;;;;;4887410;29;20524;-79
2023/11/09 12:29:38;;;;;;;5.55;2.90;;;12.20;94.50;;;;;;4902474;29;20033;-79
2023/11/09 12:32:06;;;;;;;3.42;2.42;;;12.30;94.20;;;;;;4905119;29;20028;-79
2023/11/09 12:34:35;;;;;;;3.55;2.58;;;12.30;95.20;;;;;;4905010;29;20031;-80
2023/11/09 12:37:01;;;;;;;8.15;4.63;;;12.30;94.70;;;;;;4905878;29;20024;-80
2023/11/09 12:39:30;;;;;;;14.48;11.68;;;12.30;94.50;;;;;;4903414;29;20028;-80
2023/11/09 12:42:00;;;;;;;6.57;5.47;;;12.40;94.50;;;;;;4917663;29;20020;-80
2023/11/09 12:44:29;;;;;;;5.82;2.95;;;12.50;94.70;;;;;;4922472;29;20064;-79
2023/11/09 12:47:20;;;;;;;4.28;3.20;;;12.50;94.30;;;;;;4922222;29;20035;-79
2023/11/09 12:49:48;;;;;;;3.05;2.15;;;12.40;94.30;;;;;;4904394;29;20040;-81
2023/11/09 12:52:17;;;;;;;2.42;1.63;;;12.40;94.60;;;;;;4919748;29;20123;-79
2023/11/09 12:54:45;;;;;;;3.45;1.95;;;12.30;93.80;;;;;;4919485;29;20047;-79
2023/11/09 12:57:11;;;;;;;2.65;2.45;;;12.40;93.60;;;;;;4921040;29;20071;-81
2023/11/09 12:59:45;;;;;;;2.17;1.70;;;12.30;94.50;;;;;;4920962;29;20111;-79